createdAt,value
2018-11-04T00:02:11.144Z,8.14
2018-11-04T00:04:39.652Z,8.06
2018-11-04T00:07:08.208Z,7.79
2018-11-04T00:09:36.783Z,7.85
2018-11-04T00:12:05.501Z,7.96
2018-11-04T00:14:33.950Z,8.02
2018-11-04T00:17:02.508Z,8.22
2018-11-04T00:19:30.977Z,8.19
2018-11-04T00:21:59.478Z,8.22
2018-11-04T00:24:27.981Z,8.18
2018-11-04T00:26:56.503Z,8.24
2018-11-04T00:29:24.994Z,8.29
2018-11-04T00:31:53.535Z,8.13
2018-11-04T00:34:22.119Z,8.25
2018-11-04T00:36:50.634Z,8.23
2018-11-04T00:39:19.124Z,8.24
2018-11-04T00:41:47.628Z,8.15
2018-11-04T00:44:16.096Z,8.05
2018-11-04T00:46:44.636Z,8.01
2018-11-04T00:49:13.201Z,7.96
2018-11-04T00:51:41.680Z,8.11
2018-11-04T00:54:10.134Z,7.95
2018-11-04T00:56:39.206Z,8.09
2018-11-04T00:59:07.811Z,8.26
2018-11-04T01:01:36.418Z,8.16
2018-11-04T01:04:05.165Z,8.22
2018-11-04T01:06:33.777Z,8.03
2018-11-04T01:09:02.301Z,8.05
2018-11-04T01:11:30.860Z,7.75
2018-11-04T01:13:59.394Z,8.14
2018-11-04T01:16:28.008Z,8.09
2018-11-04T01:18:56.579Z,8.17
2018-11-04T01:21:25.098Z,8.09
2018-11-04T01:23:53.547Z,8.23
2018-11-04T01:26:22.071Z,8.23
2018-11-04T01:28:51.250Z,8.22
2018-11-04T01:31:19.713Z,8.23
2018-11-04T01:33:48.268Z,8.13
2018-11-04T01:36:16.883Z,8.00
2018-11-04T01:38:46.125Z,8.09
2018-11-04T01:41:14.633Z,8.12
2018-11-04T01:43:43.098Z,8.21
2018-11-04T01:46:11.637Z,8.17
2018-11-04T01:48:40.188Z,8.04
2018-11-04T01:51:09.460Z,8.20
2018-11-04T01:53:37.917Z,8.20
2018-11-04T01:56:06.368Z,8.16
2018-11-04T01:58:35.173Z,8.34
2018-11-04T02:01:03.657Z,7.96
2018-11-04T02:03:32.489Z,8.02
2018-11-04T02:06:00.918Z,8.24
2018-11-04T02:08:29.463Z,8.01
2018-11-04T02:10:58.473Z,7.86
2018-11-04T02:13:26.992Z,7.88
2018-11-04T02:15:55.579Z,7.89
2018-11-04T02:18:24.486Z,7.86
2018-11-04T02:20:52.924Z,7.92
2018-11-04T02:23:21.623Z,7.93
2018-11-04T02:25:50.057Z,7.90
2018-11-04T02:28:18.609Z,7.75
2018-11-04T02:30:47.269Z,7.75
2018-11-04T02:33:15.767Z,7.86
2018-11-04T02:35:44.538Z,7.91
2018-11-04T02:38:13.048Z,7.84
2018-11-04T02:40:41.511Z,8.02
2018-11-04T02:43:09.960Z,7.87
2018-11-04T02:45:38.412Z,7.85
2018-11-04T02:48:07.380Z,7.89
2018-11-04T02:50:35.894Z,7.93
2018-11-04T02:53:04.733Z,7.92
2018-11-04T02:55:33.204Z,7.87
2018-11-04T02:58:01.708Z,7.92
2018-11-04T03:00:30.205Z,7.78
2018-11-04T03:02:58.702Z,7.81
2018-11-04T03:05:27.215Z,7.98
2018-11-04T03:07:55.709Z,7.77
2018-11-04T03:10:24.259Z,7.83
2018-11-04T03:12:52.699Z,7.90
2018-11-04T03:15:21.292Z,7.79
2018-11-04T03:17:49.792Z,7.99
2018-11-04T03:20:18.326Z,8.04
2018-11-04T03:22:46.847Z,7.72
2018-11-04T03:25:15.305Z,7.78
2018-11-04T03:27:44.167Z,7.88
2018-11-04T03:30:12.642Z,7.88
2018-11-04T03:32:41.121Z,7.82
2018-11-04T03:35:10.268Z,8.03
2018-11-04T03:37:38.739Z,7.92
2018-11-04T03:40:09.146Z,7.86
2018-11-04T03:42:37.621Z,8.09
2018-11-04T03:45:06.829Z,7.89
2018-11-04T03:47:36.345Z,8.09
2018-11-04T03:50:06.007Z,8.03
2018-11-04T03:52:34.472Z,8.11
2018-11-04T03:55:02.981Z,7.97
2018-11-04T03:57:31.463Z,8.01
2018-11-04T03:59:59.938Z,8.00
2018-11-04T04:02:28.406Z,8.27
2018-11-04T04:04:56.859Z,8.31
2018-11-04T04:07:25.895Z,8.03
2018-11-04T04:09:54.364Z,8.07
2018-11-04T04:12:22.833Z,8.14
2018-11-04T04:14:51.400Z,8.06
2018-11-04T04:17:19.828Z,7.96
2018-11-04T04:19:48.944Z,7.97
2018-11-04T04:22:17.447Z,8.05
2018-11-04T04:24:46.028Z,8.12
2018-11-04T04:27:14.455Z,8.08
2018-11-04T04:29:42.992Z,8.02
2018-11-04T04:32:11.480Z,7.98
2018-11-04T04:34:40.023Z,8.14
2018-11-04T04:37:09.222Z,8.10
2018-11-04T04:39:37.711Z,7.93
2018-11-04T04:42:06.457Z,7.89
2018-11-04T04:44:35.561Z,7.83
2018-11-04T04:47:06.146Z,7.94
2018-11-04T04:49:34.773Z,7.63
2018-11-04T04:52:03.212Z,7.86
2018-11-04T04:54:31.708Z,7.84
2018-11-04T04:57:00.364Z,7.99
2018-11-04T04:59:29.737Z,7.84
2018-11-04T05:02:00.924Z,7.97
2018-11-04T05:04:29.720Z,7.99
2018-11-04T05:06:59.093Z,8.10
2018-11-04T05:09:28.127Z,8.01
2018-11-04T05:11:56.665Z,8.09
2018-11-04T05:14:25.249Z,7.95
2018-11-04T05:16:54.347Z,7.91
2018-11-04T05:19:22.795Z,8.03
2018-11-04T05:21:51.418Z,7.93
2018-11-04T05:24:19.897Z,8.16
2018-11-04T05:26:49.768Z,8.32
2018-11-04T05:29:18.264Z,8.31
2018-11-04T05:31:47.356Z,7.99
2018-11-04T05:34:16.301Z,8.01
2018-11-04T05:36:44.763Z,8.10
2018-11-04T05:39:13.282Z,7.91
2018-11-04T05:41:41.804Z,7.94
2018-11-04T05:44:10.797Z,7.97
2018-11-04T05:46:39.851Z,7.99
2018-11-04T05:49:08.563Z,7.86
2018-11-04T05:51:37.030Z,7.97
2018-11-04T05:54:05.964Z,7.81
2018-11-04T05:56:34.851Z,7.97
2018-11-04T05:59:03.349Z,7.94
2018-11-04T06:01:31.798Z,7.82
2018-11-04T06:04:00.260Z,7.95
2018-11-04T06:06:29.598Z,8.04
2018-11-04T06:08:58.180Z,8.03
2018-11-04T06:11:26.667Z,8.10
2018-11-04T06:13:55.701Z,8.01
2018-11-04T06:16:24.781Z,7.97
2018-11-04T06:18:53.307Z,8.03
2018-11-04T06:21:21.821Z,8.14
2018-11-04T06:23:50.864Z,7.97
2018-11-04T06:26:19.442Z,8.14
2018-11-04T06:28:47.985Z,8.04
2018-11-04T06:31:16.450Z,7.91
2018-11-04T06:33:44.998Z,7.89
2018-11-04T06:36:13.464Z,8.02
2018-11-04T06:38:41.979Z,7.85
2018-11-04T06:41:10.599Z,7.94
2018-11-04T06:43:39.659Z,7.94
2018-11-04T06:46:08.845Z,7.91
2018-11-04T06:48:37.478Z,8.06
2018-11-04T06:51:05.998Z,8.15
2018-11-04T06:53:34.411Z,8.13
2018-11-04T06:56:02.943Z,8.20
2018-11-04T06:58:31.534Z,8.12
2018-11-04T07:01:00.500Z,8.24
2018-11-04T07:03:29.643Z,8.32
2018-11-04T07:05:58.133Z,8.13
2018-11-04T07:08:27.001Z,8.10
2018-11-04T07:10:55.480Z,8.35
2018-11-04T07:13:23.949Z,8.13
2018-11-04T07:15:52.550Z,8.13
2018-11-04T07:18:21.061Z,8.45
2018-11-04T07:20:51.111Z,8.58
2018-11-04T07:23:19.603Z,8.48
2018-11-04T07:25:49.133Z,8.56
2018-11-04T07:28:17.666Z,8.71
2018-11-04T07:30:46.159Z,8.46
2018-11-04T07:33:14.630Z,8.44
2018-11-04T07:35:43.050Z,8.48
2018-11-04T07:38:11.531Z,8.62
2018-11-04T07:42:04.479Z,8.57
2018-11-04T07:44:32.935Z,8.70
2018-11-04T07:47:01.716Z,8.47
2018-11-04T07:49:31.127Z,8.38
2018-11-04T07:52:00.912Z,8.42
2018-11-04T07:54:30.204Z,8.52
2018-11-04T07:56:58.736Z,8.50
2018-11-04T07:59:27.439Z,8.84
2018-11-04T08:01:57.953Z,9.11
2018-11-04T08:04:26.533Z,9.04
2018-11-04T08:06:55.756Z,9.06
2018-11-04T08:09:24.224Z,9.18
2018-11-04T08:11:52.668Z,9.22
2018-11-04T08:14:21.411Z,9.33
2018-11-04T08:16:50.698Z,9.62
2018-11-04T08:19:19.211Z,9.54
2018-11-04T08:21:47.718Z,9.54
2018-11-04T08:24:16.230Z,9.45
2018-11-04T08:26:46.066Z,9.39
2018-11-04T08:29:15.127Z,9.46
2018-11-04T08:31:43.602Z,9.70
2018-11-04T08:34:12.153Z,9.83
2018-11-04T08:36:41.744Z,9.69
2018-11-04T08:39:11.448Z,9.85
2018-11-04T08:41:40.056Z,10.17
2018-11-04T08:44:08.699Z,9.78
2018-11-04T08:46:37.200Z,9.74
2018-11-04T08:49:05.948Z,9.73
2018-11-04T08:51:35.320Z,10.12
2018-11-04T08:54:04.897Z,10.40
2018-11-04T08:56:33.396Z,10.52
2018-11-04T08:59:02.904Z,10.45
2018-11-04T09:01:32.089Z,10.89
2018-11-04T09:04:00.816Z,11.00
2018-11-04T09:06:30.421Z,11.00
2018-11-04T09:08:59.976Z,11.12
2018-11-04T09:11:28.783Z,10.70
2018-11-04T09:13:57.268Z,10.77
2018-11-04T09:16:26.662Z,10.95
2018-11-04T09:18:55.219Z,10.87
2018-11-04T09:21:23.671Z,11.05
2018-11-04T09:23:53.109Z,10.98
2018-11-04T09:26:21.569Z,11.13
2018-11-04T09:28:50.781Z,11.13
2018-11-04T09:31:19.344Z,11.09
2018-11-04T09:33:48.973Z,10.88
2018-11-04T09:36:20.144Z,11.18
2018-11-04T09:38:53.362Z,11.01
2018-11-04T09:41:22.252Z,11.48
2018-11-04T09:43:52.024Z,12.00
2018-11-04T09:46:20.590Z,12.42
2018-11-04T09:48:50.081Z,12.67
2018-11-04T09:51:18.830Z,12.43
2018-11-04T09:53:48.000Z,12.67
2018-11-04T09:56:16.604Z,12.88
2018-11-04T09:58:45.163Z,12.65
2018-11-04T10:01:14.262Z,12.42
2018-11-04T10:03:43.512Z,12.98
2018-11-04T10:06:13.097Z,12.66
2018-11-04T10:08:41.586Z,12.72
2018-11-04T10:11:10.666Z,13.00
2018-11-04T10:13:40.215Z,12.93
2018-11-04T10:16:09.818Z,13.06
2018-11-04T10:18:38.244Z,13.03
2018-11-04T10:21:07.447Z,12.96
2018-11-04T10:23:35.566Z,12.75
2018-11-04T10:26:04.136Z,12.83
2018-11-04T10:28:33.256Z,12.74
2018-11-04T10:31:01.881Z,13.18
2018-11-04T10:33:30.469Z,12.91
2018-11-04T10:35:59.054Z,13.14
2018-11-04T10:38:29.244Z,12.99
2018-11-04T10:40:57.740Z,12.99
2018-11-04T10:43:26.278Z,13.05
2018-11-04T10:45:54.739Z,13.10
2018-11-04T10:48:23.625Z,13.15
2018-11-04T10:50:52.138Z,12.83
2018-11-04T10:53:20.680Z,12.84
2018-11-04T10:55:50.749Z,13.15
2018-11-04T10:58:19.155Z,12.63
2018-11-04T11:00:52.936Z,13.13
2018-11-04T11:03:21.408Z,13.12
2018-11-04T11:05:50.450Z,13.15
2018-11-04T11:08:19.144Z,13.34
2018-11-04T11:10:47.648Z,13.41
2018-11-04T11:13:16.672Z,12.84
2018-11-04T11:15:45.125Z,13.01
2018-11-04T11:18:13.617Z,13.25
2018-11-04T11:20:43.029Z,13.32
2018-11-04T11:23:12.289Z,13.18
2018-11-04T11:25:40.721Z,13.48
2018-11-04T11:28:10.011Z,13.17
2018-11-04T11:30:38.781Z,13.53
2018-11-04T11:33:07.300Z,13.49
2018-11-04T11:35:36.549Z,13.74
2018-11-04T11:38:05.797Z,12.95
2018-11-04T11:40:35.145Z,13.40
2018-11-04T11:43:03.648Z,13.14
2018-11-04T11:45:32.201Z,13.51
2018-11-04T11:48:00.816Z,13.21
2018-11-04T11:50:29.313Z,13.20
2018-11-04T11:52:57.871Z,13.71
2018-11-04T11:55:26.369Z,13.65
2018-11-04T11:57:55.393Z,14.04
2018-11-04T12:00:24.133Z,14.05
2018-11-04T12:02:53.372Z,14.10
2018-11-04T12:05:21.849Z,14.36
2018-11-04T12:07:50.417Z,14.53
2018-11-04T12:10:18.878Z,14.64
2018-11-04T12:12:48.027Z,14.18
2018-11-04T12:15:16.479Z,14.26
2018-11-04T12:17:45.338Z,14.25
2018-11-04T12:20:14.553Z,14.43
2018-11-04T12:22:44.598Z,14.69
2018-11-04T12:25:13.693Z,15.01
2018-11-04T12:27:42.417Z,14.17
2018-11-04T12:30:13.444Z,14.05
2018-11-04T12:32:41.934Z,14.69
2018-11-04T12:35:11.846Z,13.65
2018-11-04T12:37:40.331Z,14.35
2018-11-04T12:40:10.510Z,13.93
2018-11-04T12:42:39.084Z,13.54
2018-11-04T12:45:09.037Z,13.01
2018-11-04T12:47:37.613Z,13.16
2018-11-04T12:50:07.613Z,13.24
2018-11-04T12:52:36.280Z,13.13
2018-11-04T12:55:05.489Z,13.42
2018-11-04T12:57:34.881Z,13.73
2018-11-04T13:00:03.981Z,13.78
2018-11-04T13:02:32.440Z,14.02
2018-11-04T13:05:02.012Z,13.02
2018-11-04T13:07:30.663Z,13.59
2018-11-04T13:09:59.814Z,13.28
2018-11-04T13:12:30.406Z,13.71
2018-11-04T13:14:59.025Z,13.94
2018-11-04T13:17:28.515Z,13.97
2018-11-04T13:19:57.441Z,13.85
2018-11-04T13:22:27.722Z,13.82
2018-11-04T13:24:56.785Z,13.60
2018-11-04T13:27:25.999Z,13.73
2018-11-04T13:29:55.461Z,14.16
2018-11-04T13:32:24.977Z,13.50
2018-11-04T13:34:54.082Z,13.63
2018-11-04T13:37:23.364Z,13.62
2018-11-04T13:39:51.906Z,13.62
2018-11-04T13:42:20.706Z,13.63
2018-11-04T13:44:50.539Z,13.47
2018-11-04T13:47:19.518Z,13.03
2018-11-04T13:49:49.181Z,13.24
2018-11-04T13:52:18.814Z,13.11
2018-11-04T13:54:48.506Z,12.98
2018-11-04T13:57:17.110Z,13.13
2018-11-04T13:59:46.078Z,13.01
2018-11-04T14:02:15.046Z,12.76
2018-11-04T14:04:44.072Z,12.89
2018-11-04T14:07:13.380Z,12.93
2018-11-04T14:09:43.442Z,12.96
2018-11-04T14:12:12.734Z,12.51
2018-11-04T14:14:41.584Z,12.47
2018-11-04T14:17:10.992Z,12.31
2018-11-04T14:19:39.852Z,12.02
2018-11-04T14:22:08.772Z,12.19
2018-11-04T14:24:37.686Z,12.14
2018-11-04T14:27:06.594Z,12.29
2018-11-04T14:29:35.279Z,12.04
2018-11-04T14:32:04.007Z,11.96
2018-11-04T14:34:32.808Z,11.97
2018-11-04T14:37:01.468Z,11.85
2018-11-04T14:39:31.126Z,11.84
2018-11-04T14:41:59.834Z,11.87
2018-11-04T14:44:28.338Z,11.68
2018-11-04T14:46:56.839Z,11.74
2018-11-04T14:49:25.339Z,11.60
2018-11-04T14:51:53.851Z,11.78
2018-11-04T14:54:22.288Z,11.96
2018-11-04T14:56:50.765Z,11.99
2018-11-04T14:59:19.386Z,11.80
2018-11-04T15:01:48.069Z,11.88
2018-11-04T15:04:17.709Z,11.94
2018-11-04T15:09:45.682Z,11.89
2018-11-04T15:12:14.139Z,11.91
2018-11-04T15:14:42.702Z,11.78
2018-11-04T15:17:11.205Z,11.88
2018-11-04T15:19:39.720Z,11.71
2018-11-04T15:22:09.804Z,11.83
2018-11-04T15:24:38.449Z,12.01
2018-11-04T15:27:06.935Z,12.09
2018-11-04T15:29:35.931Z,12.04
2018-11-04T15:32:05.884Z,11.93
2018-11-04T15:34:34.802Z,11.90
2018-11-04T15:37:03.113Z,11.87
2018-11-04T15:39:31.603Z,11.80
2018-11-04T15:42:00.067Z,11.82
2018-11-04T15:44:28.647Z,11.80
2018-11-04T15:46:57.256Z,11.63
2018-11-04T15:49:25.675Z,11.89
2018-11-04T15:51:54.721Z,11.89
2018-11-04T15:54:23.907Z,11.81
2018-11-04T15:56:52.429Z,11.75
2018-11-04T15:59:20.991Z,11.37
2018-11-04T16:01:50.262Z,11.62
2018-11-04T16:04:19.685Z,11.76
2018-11-04T16:06:50.113Z,11.53
2018-11-04T16:09:18.619Z,11.62
2018-11-04T16:11:47.428Z,11.57
2018-11-04T16:14:15.959Z,11.55
2018-11-04T16:16:46.593Z,11.53
2018-11-04T16:19:15.160Z,11.48
2018-11-04T16:21:43.700Z,11.55
2018-11-04T16:24:12.228Z,11.46
2018-11-04T16:26:40.703Z,11.48
2018-11-04T16:29:09.339Z,11.56
2018-11-04T16:31:44.567Z,11.53
2018-11-04T16:34:13.126Z,11.65
2018-11-04T16:36:41.874Z,11.54
2018-11-04T16:39:10.400Z,11.45
2018-11-04T16:41:38.992Z,11.41
2018-11-04T16:44:08.106Z,11.33
2018-11-04T16:46:37.935Z,11.43
2018-11-04T16:49:07.180Z,11.40
2018-11-04T16:51:35.868Z,11.50
2018-11-04T16:54:04.407Z,11.70
2018-11-04T16:56:32.873Z,11.28
2018-11-04T16:59:01.358Z,11.28
2018-11-04T17:01:29.926Z,11.42
2018-11-04T17:03:59.003Z,11.55
2018-11-04T17:06:28.094Z,11.37
2018-11-04T17:08:57.023Z,11.40
2018-11-04T17:11:26.775Z,11.26
2018-11-04T17:13:55.208Z,11.29
2018-11-04T17:16:23.751Z,11.53
2018-11-04T17:18:52.220Z,11.46
2018-11-04T17:21:21.554Z,11.52
2018-11-04T17:23:50.128Z,11.35
2018-11-04T17:26:18.583Z,11.43
2018-11-04T17:28:47.973Z,11.54
2018-11-04T17:31:16.640Z,11.38
2018-11-04T17:33:45.568Z,11.36
2018-11-04T17:36:14.624Z,11.48
2018-11-04T17:38:43.173Z,11.19
2018-11-04T17:41:11.665Z,11.31
2018-11-04T17:43:40.225Z,11.40
2018-11-04T17:46:09.542Z,11.41
2018-11-04T17:48:38.052Z,11.53
2018-11-04T17:51:06.513Z,11.35
2018-11-04T17:53:35.132Z,11.42
2018-11-04T17:56:03.632Z,11.35
2018-11-04T17:58:32.080Z,11.54
2018-11-04T18:01:00.524Z,11.45
2018-11-04T18:03:29.427Z,11.42
2018-11-04T18:06:00.817Z,11.41
2018-11-04T18:08:29.637Z,11.45
2018-11-04T18:10:58.202Z,11.26
2018-11-04T18:13:26.718Z,11.18
2018-11-04T18:15:55.256Z,11.47
2018-11-04T18:18:23.789Z,11.51
2018-11-04T18:20:52.220Z,11.24
2018-11-04T18:23:20.725Z,11.49
2018-11-04T18:25:50.036Z,11.47
2018-11-04T18:28:18.508Z,11.52
2018-11-04T18:30:48.631Z,11.44
2018-11-04T18:33:17.251Z,11.57
2018-11-04T18:35:45.719Z,11.59
2018-11-04T18:38:14.216Z,11.41
2018-11-04T18:40:42.711Z,11.40
2018-11-04T18:43:11.255Z,11.40
2018-11-04T18:45:39.672Z,11.58
2018-11-04T18:48:08.184Z,11.46
2018-11-04T18:50:36.676Z,11.33
2018-11-04T18:53:05.423Z,11.30
2018-11-04T18:55:33.873Z,11.25
2018-11-04T18:58:02.350Z,11.40
2018-11-04T19:00:30.798Z,11.35
2018-11-04T19:02:59.371Z,11.30
2018-11-04T19:05:29.589Z,11.23
2018-11-04T19:07:58.116Z,11.43
2018-11-04T19:10:26.944Z,11.09
2018-11-04T19:12:55.665Z,11.43
2018-11-04T19:15:24.084Z,11.42
2018-11-04T19:17:52.565Z,11.35
2018-11-04T19:20:20.991Z,11.46
2018-11-04T19:22:49.584Z,11.42
2018-11-04T19:25:19.097Z,11.48
2018-11-04T19:27:47.599Z,11.51
2018-11-04T19:30:17.296Z,11.42
2018-11-04T19:32:46.210Z,11.41
2018-11-04T19:35:15.391Z,11.46
2018-11-04T19:37:43.909Z,11.63
2018-11-04T19:40:14.103Z,11.53
2018-11-04T19:42:42.940Z,11.51
2018-11-04T19:45:11.290Z,11.58
2018-11-04T19:47:40.184Z,11.33
2018-11-04T19:50:12.724Z,11.42
2018-11-04T19:52:42.116Z,11.66
2018-11-04T19:55:11.360Z,11.60
2018-11-04T19:57:39.871Z,11.53
2018-11-04T20:00:09.968Z,11.51
2018-11-04T20:02:38.979Z,11.51
2018-11-04T20:05:09.020Z,11.39
2018-11-04T20:07:38.223Z,11.51
2018-11-04T20:10:09.265Z,11.37
2018-11-04T20:12:42.973Z,11.53
2018-11-04T20:15:12.822Z,11.34
2018-11-04T20:17:41.275Z,11.45
2018-11-04T20:20:15.892Z,11.41
2018-11-04T20:22:44.352Z,11.34
2018-11-04T20:25:18.300Z,11.46
2018-11-04T20:27:46.902Z,11.37
2018-11-04T20:30:15.735Z,11.52
2018-11-04T20:32:49.296Z,11.29
2018-11-04T20:35:18.882Z,11.36
2018-11-04T20:37:47.537Z,11.38
2018-11-04T20:40:21.427Z,11.32
2018-11-04T20:42:49.901Z,11.41
2018-11-04T20:45:20.121Z,11.43
2018-11-04T20:47:54.064Z,11.45
2018-11-04T20:50:27.804Z,11.43
2018-11-04T20:52:56.329Z,11.26
2018-11-04T20:55:29.782Z,11.27
2018-11-04T20:57:59.162Z,11.42
2018-11-04T21:00:28.016Z,11.28
2018-11-04T21:02:56.724Z,11.42
2018-11-04T21:05:26.219Z,11.42
2018-11-04T21:07:54.916Z,11.24
2018-11-04T21:10:24.463Z,11.20
2018-11-04T21:12:53.652Z,11.18
2018-11-04T21:15:22.160Z,11.25
2018-11-04T21:17:50.707Z,11.23
2018-11-04T21:20:19.189Z,11.35
2018-11-04T21:22:47.872Z,11.33
2018-11-04T21:25:16.786Z,11.37
2018-11-04T21:27:45.308Z,11.35
2018-11-04T21:30:14.062Z,11.18
2018-11-04T21:32:42.934Z,11.33
2018-11-04T21:35:11.959Z,11.30
2018-11-04T21:37:40.509Z,11.21
2018-11-04T21:40:09.863Z,11.25
2018-11-04T21:42:39.445Z,11.22
2018-11-04T21:45:10.167Z,11.21
2018-11-04T21:47:38.604Z,11.09
2018-11-04T21:50:08.049Z,11.35
2018-11-04T21:52:36.519Z,11.43
2018-11-04T21:55:05.939Z,11.25
2018-11-04T21:57:34.415Z,11.28
2018-11-04T22:00:03.904Z,11.17
2018-11-04T22:02:32.523Z,11.16
2018-11-04T22:05:01.993Z,11.11
2018-11-04T22:07:30.536Z,11.16
2018-11-04T22:10:00.645Z,11.19
2018-11-04T22:12:29.683Z,11.10
2018-11-04T22:14:58.760Z,11.08
2018-11-04T22:17:28.437Z,11.27
2018-11-04T22:19:57.021Z,11.15
2018-11-04T22:22:25.481Z,11.25
2018-11-04T22:24:54.159Z,11.25
2018-11-04T22:27:22.830Z,11.23
2018-11-04T22:29:51.299Z,11.24
2018-11-04T22:32:19.768Z,11.16
2018-11-04T22:34:48.312Z,10.96
2018-11-04T22:37:16.724Z,11.28
2018-11-04T22:39:45.860Z,11.12
2018-11-04T22:42:14.396Z,11.10
2018-11-04T22:44:42.827Z,11.15
2018-11-04T22:47:11.289Z,11.27
2018-11-04T22:49:39.879Z,11.26
2018-11-04T22:52:10.041Z,11.27
2018-11-04T22:54:40.281Z,11.06
2018-11-04T22:57:08.971Z,10.82
2018-11-04T22:59:37.491Z,10.80
2018-11-04T23:02:05.958Z,10.86
2018-11-04T23:04:39.818Z,10.83
2018-11-04T23:07:08.598Z,10.81
2018-11-04T23:09:37.059Z,10.88
2018-11-04T23:12:05.912Z,10.91
2018-11-04T23:14:34.404Z,10.84
2018-11-04T23:17:03.811Z,11.03
2018-11-04T23:19:32.679Z,11.21
2018-11-04T23:22:01.188Z,11.02
2018-11-04T23:24:30.588Z,11.00
2018-11-04T23:26:59.627Z,10.89
2018-11-04T23:29:28.253Z,11.04
2018-11-04T23:31:56.736Z,11.09
2018-11-04T23:34:25.327Z,10.93
2018-11-04T23:36:54.029Z,10.93
2018-11-04T23:39:22.475Z,11.01
2018-11-04T23:41:50.973Z,11.23
2018-11-04T23:44:19.438Z,11.18
2018-11-04T23:46:47.970Z,11.24
2018-11-04T23:49:16.428Z,11.27
2018-11-04T23:51:44.981Z,11.35
2018-11-04T23:54:13.436Z,11.16
2018-11-04T23:56:41.925Z,10.89
2018-11-04T23:59:11.077Z,10.77
